Time;durP1;ratioP1;P1;durP2;ratioP2;P2;SDS_P1;SDS_P2;PMS_P1;PMS_P2;Temp;Humidity;BMP_temperature;BMP_pressure;BME280_temperature;BME280_humidity;BME280_pressure;Samples;Min_cycle;Max_cycle;Signal;HPM_P1;HPM_P2
2024/03/13 00:02:23;;;;;;;105.65;31.25;;;;;;;;;;4994611;28;25059;-69
2024/03/13 00:04:49;;;;;;;82.20;27.80;;;;;;;;;;5001696;28;25064;-68
2024/03/13 00:07:15;;;;;;;79.25;28.92;;;;;;;;;;4995620;28;25162;-71
2024/03/13 00:09:50;;;;;;;76.72;27.85;;;;;;;;;;4999588;28;25097;-67
2024/03/13 00:12:19;;;;;;;80.65;26.00;;;;;;;;;;4992064;28;25062;-67
2024/03/13 00:14:52;;;;;;;63.85;24.13;;;;;;;;;;5005426;28;25083;-69
2024/03/13 00:17:21;;;;;;;50.50;21.90;;;;;;;;;;5002714;28;25065;-73
2024/03/13 00:19:47;;;;;;;39.28;18.95;;;;;;;;;;5003441;28;25079;-70
2024/03/13 00:22:18;;;;;;;53.53;20.88;;;;;;;;;;4995653;28;25114;-71
2024/03/13 00:24:48;;;;;;;54.65;20.65;;;;;;;;;;4997835;28;25059;-69
2024/03/13 00:27:17;;;;;;;45.08;19.05;;;;;;;;;;4999938;28;25134;-67
2024/03/13 00:29:46;;;;;;;53.63;21.42;;;;;;;;;;5018260;28;25053;-68
2024/03/13 00:32:14;;;;;;;56.47;24.30;;;;;;;;;;5024597;28;25076;-72
2024/03/13 00:34:43;;;;;;;48.97;20.35;;;;;;;;;;5023466;28;25050;-66
2024/03/13 00:37:09;;;;;;;54.00;22.60;;;;;;;;;;5012407;28;25070;-70
2024/03/13 00:39:35;;;;;;;54.85;22.55;;;;;;;;;;5001046;28;25075;-68
2024/03/13 00:42:02;;;;;;;58.15;24.10;;;;;;;;;;4993101;28;25058;-68
2024/03/13 00:44:28;;;;;;;50.17;23.52;;;;;;;;;;4999697;28;25158;-68
2024/03/13 00:46:55;;;;;;;58.72;25.10;;;;;;;;;;4999235;28;25132;-67
2024/03/13 00:49:22;;;;;;;58.53;27.50;;;;;;;;;;5002202;28;25068;-67
2024/03/13 00:51:51;;;;;;;61.03;27.67;;;;;;;;;;5001535;28;25053;-67
2024/03/13 00:54:17;;;;;;;75.70;31.58;;;;;;;;;;4996092;28;25168;-69
2024/03/13 00:56:47;;;;;;;48.25;25.83;;;;;;;;;;4999565;28;25065;-69
2024/03/13 00:59:13;;;;;;;65.80;28.17;;;;;;;;;;5000623;28;25141;-67
2024/03/13 01:01:40;;;;;;;61.25;26.08;;;;;;;;;;5005678;28;25076;-69
2024/03/13 01:04:07;;;;;;;67.03;28.67;;;;;;;;;;5002433;28;25070;-69
2024/03/13 01:06:34;;;;;;;76.80;26.60;;;;;;;;;;4996522;28;25096;-70
2024/03/13 01:09:00;;;;;;;72.93;23.80;;;;;;;;;;4992107;28;25055;-67
2024/03/13 01:11:28;;;;;;;50.15;20.95;;;;;;;;;;4999308;28;25129;-69
2024/03/13 01:13:55;;;;;;;57.38;20.50;;;;;;;;;;5004006;28;25107;-67
2024/03/13 01:16:22;;;;;;;68.50;24.27;;;;;;;;;;5003793;28;25080;-70
2024/03/13 01:18:48;;;;;;;60.65;22.33;;;;;;;;;;4995509;28;25145;-67
2024/03/13 01:21:14;;;;;;;64.28;21.48;;;;;;;;;;4988306;28;25156;-66
2024/03/13 01:23:40;;;;;;;67.78;21.10;;;;;;;;;;4996044;28;25066;-67
2024/03/13 01:26:09;;;;;;;55.92;20.35;;;;;;;;;;4994928;28;25072;-66
2024/03/13 01:28:39;;;;;;;66.63;23.23;;;;;;;;;;5003005;28;25158;-68
2024/03/13 01:31:08;;;;;;;73.60;23.00;;;;;;;;;;4996851;28;25135;-69
2024/03/13 01:33:34;;;;;;;59.85;20.92;;;;;;;;;;4994932;28;25086;-69
2024/03/13 01:36:01;;;;;;;47.13;20.20;;;;;;;;;;4999607;28;25097;-69
2024/03/13 01:38:27;;;;;;;59.28;20.02;;;;;;;;;;4998292;28;25048;-69
2024/03/13 01:54:54;;;;;;;46.80;16.80;;;;;;;;;;4998802;28;25062;-69
2024/03/13 01:57:29;;;;;;;47.85;17.63;;;;;;;;;;4995463;28;25130;-68
2024/03/13 02:02:41;;;;;;;45.00;17.05;;;;;;;;;;4999042;28;25059;-69
2024/03/13 02:05:07;;;;;;;43.72;17.92;;;;;;;;;;4996636;28;25070;-68
2024/03/13 02:07:33;;;;;;;46.67;17.02;;;;;;;;;;5001653;28;25067;-67
2024/03/13 02:09:59;;;;;;;48.03;19.65;;;;;;;;;;5008718;28;25049;-69
2024/03/13 02:12:26;;;;;;;49.92;19.40;;;;;;;;;;5010078;28;25086;-68
2024/03/13 02:14:52;;;;;;;39.50;16.75;;;;;;;;;;5005103;28;25041;-68
2024/03/13 02:17:19;;;;;;;40.10;18.23;;;;;;;;;;4993599;28;25061;-69
2024/03/13 02:19:46;;;;;;;40.83;16.75;;;;;;;;;;4994968;28;25076;-69
2024/03/13 02:22:13;;;;;;;44.58;17.58;;;;;;;;;;5004471;28;25050;-71
2024/03/13 02:24:39;;;;;;;51.45;17.40;;;;;;;;;;5005974;28;25151;-67
2024/03/13 02:27:11;;;;;;;42.47;16.52;;;;;;;;;;4996131;28;25072;-66
2024/03/13 02:29:38;;;;;;;34.20;15.70;;;;;;;;;;4988647;28;25064;-67
2024/03/13 02:32:05;;;;;;;40.20;14.35;;;;;;;;;;4996842;28;25098;-67
2024/03/13 02:34:31;;;;;;;41.88;15.75;;;;;;;;;;4991353;28;25079;-67
2024/03/13 02:36:57;;;;;;;45.15;15.52;;;;;;;;;;4999313;28;25076;-67
2024/03/13 02:39:24;;;;;;;46.17;17.55;;;;;;;;;;4997584;28;25085;-66
2024/03/13 02:41:50;;;;;;;38.88;15.88;;;;;;;;;;5012206;28;25125;-68
2024/03/13 02:44:17;;;;;;;46.17;18.23;;;;;;;;;;5019485;28;25488;-72
2024/03/13 02:46:43;;;;;;;40.88;18.52;;;;;;;;;;5011554;28;25071;-68
2024/03/13 02:49:09;;;;;;;72.82;23.80;;;;;;;;;;5005415;28;25069;-70
2024/03/13 02:51:35;;;;;;;64.18;23.00;;;;;;;;;;5002684;28;25055;-68
2024/03/13 02:54:01;;;;;;;52.58;22.02;;;;;;;;;;4996926;28;25060;-67
2024/03/13 02:56:27;;;;;;;60.30;24.65;;;;;;;;;;4989822;28;25159;-68
2024/03/13 02:58:53;;;;;;;76.22;26.70;;;;;;;;;;4993500;28;25067;-66
2024/03/13 03:01:19;;;;;;;73.00;26.42;;;;;;;;;;4996112;28;25061;-68
2024/03/13 03:03:46;;;;;;;67.25;24.92;;;;;;;;;;4991752;28;25084;-67
2024/03/13 03:06:15;;;;;;;77.45;26.65;;;;;;;;;;5000366;28;25072;-67
2024/03/13 03:08:42;;;;;;;68.97;24.88;;;;;;;;;;4998938;28;25053;-67
2024/03/13 03:11:08;;;;;;;69.55;24.50;;;;;;;;;;4995338;28;25092;-67
2024/03/13 03:13:34;;;;;;;54.72;20.92;;;;;;;;;;4998371;28;25096;-69
2024/03/13 03:16:00;;;;;;;72.95;23.73;;;;;;;;;;4997234;28;25112;-67
2024/03/13 03:18:26;;;;;;;70.15;23.15;;;;;;;;;;4995798;28;25108;-67
2024/03/13 03:20:52;;;;;;;63.80;21.52;;;;;;;;;;4994196;28;25050;-68
2024/03/13 03:23:19;;;;;;;59.90;20.38;;;;;;;;;;4995760;28;25077;-70
2024/03/13 03:25:45;;;;;;;64.22;22.15;;;;;;;;;;4995598;28;25079;-67
2024/03/13 03:28:14;;;;;;;69.13;21.52;;;;;;;;;;4989981;28;25085;-69
2024/03/13 03:30:43;;;;;;;56.67;19.00;;;;;;;;;;5002273;28;25137;-67
2024/03/13 03:33:18;;;;;;;69.75;20.23;;;;;;;;;;4987331;28;25077;-72
2024/03/13 03:35:44;;;;;;;62.45;19.25;;;;;;;;;;4998217;28;25055;-68
2024/03/13 03:38:10;;;;;;;54.55;17.92;;;;;;;;;;4990285;28;25066;-69
2024/03/13 03:40:36;;;;;;;51.15;17.20;;;;;;;;;;4993645;28;25047;-67
2024/03/13 03:43:03;;;;;;;58.78;15.93;;;;;;;;;;4994117;28;25082;-67
2024/03/13 03:45:30;;;;;;;58.85;18.35;;;;;;;;;;4994984;28;25146;-66
2024/03/13 03:47:56;;;;;;;55.35;17.33;;;;;;;;;;4992495;28;25067;-66
2024/03/13 03:50:22;;;;;;;52.70;14.75;;;;;;;;;;4992459;28;25130;-68
2024/03/13 03:52:48;;;;;;;56.60;16.60;;;;;;;;;;4993828;28;25074;-67
2024/03/13 03:55:15;;;;;;;59.13;17.30;;;;;;;;;;4994439;28;25069;-70
2024/03/13 03:57:41;;;;;;;56.10;17.02;;;;;;;;;;4997752;28;25071;-68
2024/03/13 04:00:10;;;;;;;62.78;17.23;;;;;;;;;;5003320;28;25094;-69
2024/03/13 04:02:36;;;;;;;62.90;16.52;;;;;;;;;;5001858;28;25154;-68
2024/03/13 04:05:06;;;;;;;57.83;16.58;;;;;;;;;;4997825;28;25076;-69
2024/03/13 04:07:32;;;;;;;56.15;15.70;;;;;;;;;;5000977;28;25109;-67
2024/03/13 04:09:58;;;;;;;44.55;13.13;;;;;;;;;;5000811;28;25078;-70
2024/03/13 04:12:24;;;;;;;52.65;16.73;;;;;;;;;;4998772;28;25063;-67
2024/03/13 04:14:50;;;;;;;44.95;13.20;;;;;;;;;;5003540;28;25057;-69
2024/03/13 04:17:17;;;;;;;47.85;14.15;;;;;;;;;;4994671;28;25086;-67
2024/03/13 04:19:43;;;;;;;46.53;14.18;;;;;;;;;;5002165;28;25062;-67
2024/03/13 04:22:09;;;;;;;55.35;14.95;;;;;;;;;;5002560;28;25136;-69
2024/03/13 04:24:35;;;;;;;46.28;13.82;;;;;;;;;;5002540;28;25075;-67
2024/03/13 04:27:02;;;;;;;33.17;10.98;;;;;;;;;;5004494;28;25087;-67
2024/03/13 04:29:28;;;;;;;53.50;14.30;;;;;;;;;;5000551;28;25048;-69
2024/03/13 04:31:54;;;;;;;45.28;13.30;;;;;;;;;;5002446;28;25082;-69
2024/03/13 04:34:20;;;;;;;45.88;13.68;;;;;;;;;;4995172;28;25049;-70
2024/03/13 04:36:47;;;;;;;28.25;9.77;;;;;;;;;;5001107;28;25138;-69
2024/03/13 04:39:13;;;;;;;30.75;12.10;;;;;;;;;;4990103;28;25133;-66
2024/03/13 04:41:41;;;;;;;39.50;11.75;;;;;;;;;;4995751;28;25076;-68
2024/03/13 04:44:11;;;;;;;41.00;12.88;;;;;;;;;;4992364;28;25061;-69
2024/03/13 04:46:38;;;;;;;39.97;11.52;;;;;;;;;;5002841;28;25109;-66
2024/03/13 04:49:04;;;;;;;41.85;12.02;;;;;;;;;;4992266;28;25069;-68
2024/03/13 04:51:30;;;;;;;41.33;11.40;;;;;;;;;;4992680;28;25061;-68
2024/03/13 04:53:56;;;;;;;41.75;12.35;;;;;;;;;;4990230;28;25053;-67
2024/03/13 04:56:22;;;;;;;27.00;9.73;;;;;;;;;;5018767;28;25052;-68
2024/03/13 04:58:48;;;;;;;33.42;12.32;;;;;;;;;;5014163;28;25072;-67
2024/03/13 05:01:17;;;;;;;45.85;13.50;;;;;;;;;;5018702;28;25068;-66
2024/03/13 05:03:43;;;;;;;43.63;14.20;;;;;;;;;;5005693;28;25102;-67
2024/03/13 05:06:09;;;;;;;44.13;13.68;;;;;;;;;;4994441;28;25108;-68
2024/03/13 05:08:35;;;;;;;53.85;14.07;;;;;;;;;;5000266;28;25190;-67
2024/03/13 05:11:01;;;;;;;51.28;15.70;;;;;;;;;;4995271;28;25135;-69
2024/03/13 05:13:27;;;;;;;40.90;13.68;;;;;;;;;;4996845;28;25061;-68
2024/03/13 05:15:53;;;;;;;55.50;15.70;;;;;;;;;;5001338;28;25054;-67
2024/03/13 05:18:19;;;;;;;40.75;13.88;;;;;;;;;;4999305;28;25051;-70
2024/03/13 05:20:46;;;;;;;48.35;13.15;;;;;;;;;;5001311;28;25069;-68
2024/03/13 05:23:12;;;;;;;53.33;14.98;;;;;;;;;;5023644;28;25050;-68
2024/03/13 05:25:38;;;;;;;50.58;14.60;;;;;;;;;;5028151;28;25072;-69
2024/03/13 05:28:04;;;;;;;60.65;14.82;;;;;;;;;;5005481;28;25058;-69
2024/03/13 05:30:30;;;;;;;51.72;15.50;;;;;;;;;;5008589;28;25077;-67
2024/03/13 05:32:56;;;;;;;50.80;14.75;;;;;;;;;;5003155;28;25071;-68
2024/03/13 05:35:23;;;;;;;52.67;13.90;;;;;;;;;;5009829;28;25072;-68
2024/03/13 05:37:49;;;;;;;56.08;16.67;;;;;;;;;;5022645;28;25067;-67
2024/03/13 05:40:19;;;;;;;40.85;13.30;;;;;;;;;;5011745;28;25093;-67
2024/03/13 05:42:45;;;;;;;49.78;14.40;;;;;;;;;;5013026;28;25069;-68
2024/03/13 05:45:11;;;;;;;46.80;14.35;;;;;;;;;;5015852;28;25076;-68
2024/03/13 05:47:41;;;;;;;43.15;13.68;;;;;;;;;;5014042;28;25096;-67
2024/03/13 05:50:07;;;;;;;37.17;14.95;;;;;;;;;;5019853;28;25132;-67
2024/03/13 05:52:33;;;;;;;58.35;17.13;;;;;;;;;;5013079;28;25081;-67
2024/03/13 05:55:01;;;;;;;36.75;15.15;;;;;;;;;;5019724;28;25097;-68
2024/03/13 05:57:27;;;;;;;45.25;16.25;;;;;;;;;;5013998;28;25071;-67
2024/03/13 05:59:53;;;;;;;41.80;17.63;;;;;;;;;;5011513;28;25080;-66
2024/03/13 06:02:19;;;;;;;52.08;21.02;;;;;;;;;;5008308;28;25088;-69
2024/03/13 06:04:50;;;;;;;48.72;20.15;;;;;;;;;;5012545;28;25060;-66
2024/03/13 06:07:15;;;;;;;59.63;23.77;;;;;;;;;;5013586;28;25085;-67
2024/03/13 06:09:41;;;;;;;57.03;21.80;;;;;;;;;;5017082;28;25099;-67
2024/03/13 06:12:07;;;;;;;51.67;22.80;;;;;;;;;;5014119;28;25054;-66
2024/03/13 06:14:33;;;;;;;62.90;22.98;;;;;;;;;;5010321;28;25102;-66
2024/03/13 06:17:00;;;;;;;58.72;23.17;;;;;;;;;;5019891;28;25124;-66
2024/03/13 06:19:26;;;;;;;57.15;22.23;;;;;;;;;;5016106;28;25076;-67
2024/03/13 06:21:52;;;;;;;55.47;21.60;;;;;;;;;;5010851;28;25073;-67
2024/03/13 06:24:23;;;;;;;50.17;21.42;;;;;;;;;;5019526;28;25090;-66
2024/03/13 06:26:49;;;;;;;47.58;20.10;;;;;;;;;;5020128;28;25063;-67
2024/03/13 06:32:00;;;;;;;55.72;19.60;;;;;;;;;;5016960;28;25093;-68
2024/03/13 06:34:27;;;;;;;52.70;22.77;;;;;;;;;;5020566;28;25066;-67
2024/03/13 06:36:53;;;;;;;58.45;23.40;;;;;;;;;;5021649;28;25128;-68
2024/03/13 06:39:21;;;;;;;56.13;23.92;;;;;;;;;;5019321;28;25156;-68
2024/03/13 06:41:48;;;;;;;52.22;20.67;;;;;;;;;;5029083;28;25096;-67
2024/03/13 06:44:14;;;;;;;54.45;23.00;;;;;;;;;;5021782;28;25099;-67
2024/03/13 06:46:40;;;;;;;56.38;22.00;;;;;;;;;;5025953;28;25070;-68
2024/03/13 06:49:06;;;;;;;59.00;24.20;;;;;;;;;;5028997;28;25203;-67
2024/03/13 06:51:34;;;;;;;44.97;22.35;;;;;;;;;;5028355;28;25136;-68
2024/03/13 06:54:00;;;;;;;49.58;22.80;;;;;;;;;;5020604;28;25072;-68
2024/03/13 06:56:27;;;;;;;53.47;21.55;;;;;;;;;;5021898;28;25078;-69
2024/03/13 06:58:53;;;;;;;52.75;22.65;;;;;;;;;;5018252;28;25068;-67
2024/03/13 07:01:19;;;;;;;53.03;24.10;;;;;;;;;;5018972;28;25154;-66
2024/03/13 07:03:45;;;;;;;57.83;23.92;;;;;;;;;;5020523;28;25078;-67
2024/03/13 07:06:12;;;;;;;58.95;27.70;;;;;;;;;;5017993;28;25107;-66
2024/03/13 07:08:38;;;;;;;62.75;27.50;;;;;;;;;;5039016;28;25082;-68
2024/03/13 07:11:08;;;;;;;59.80;27.60;;;;;;;;;;5047973;28;25107;-68
2024/03/13 07:13:34;;;;;;;66.47;26.55;;;;;;;;;;5044603;28;25053;-67
2024/03/13 07:16:00;;;;;;;65.05;26.77;;;;;;;;;;5035062;28;25144;-67
2024/03/13 07:18:29;;;;;;;54.80;26.10;;;;;;;;;;5022655;28;25025;-67
2024/03/13 07:20:55;;;;;;;50.28;25.30;;;;;;;;;;5019040;28;25067;-68
2024/03/13 07:23:21;;;;;;;67.00;29.33;;;;;;;;;;5019039;28;25119;-67
2024/03/13 07:25:49;;;;;;;63.17;28.60;;;;;;;;;;5015448;28;25061;-67
2024/03/13 07:28:17;;;;;;;78.07;30.77;;;;;;;;;;5015112;28;25073;-69
2024/03/13 07:30:43;;;;;;;66.65;29.83;;;;;;;;;;5025837;28;25145;-67
2024/03/13 07:33:11;;;;;;;68.15;30.55;;;;;;;;;;5021515;28;25163;-68
2024/03/13 07:35:37;;;;;;;81.75;33.88;;;;;;;;;;5021279;28;25095;-68
2024/03/13 07:38:03;;;;;;;78.93;31.60;;;;;;;;;;5026278;28;25174;-66
2024/03/13 07:40:32;;;;;;;86.78;30.48;;;;;;;;;;5020258;28;25054;-67
2024/03/13 07:42:58;;;;;;;75.32;28.67;;;;;;;;;;5020204;28;25135;-69
2024/03/13 07:45:26;;;;;;;82.45;28.58;;;;;;;;;;5026920;28;25080;-69
2024/03/13 07:47:52;;;;;;;76.93;28.17;;;;;;;;;;5020346;28;25056;-67
2024/03/13 07:50:18;;;;;;;67.93;24.65;;;;;;;;;;5027688;28;25152;-68
2024/03/13 07:52:46;;;;;;;58.72;23.63;;;;;;;;;;5020013;28;25064;-69
2024/03/13 07:55:12;;;;;;;65.13;25.58;;;;;;;;;;5019906;28;25125;-68
2024/03/13 07:57:38;;;;;;;61.00;23.83;;;;;;;;;;5020693;28;25074;-69
2024/03/13 08:00:05;;;;;;;56.33;22.50;;;;;;;;;;5025395;28;25063;-67
2024/03/13 08:02:31;;;;;;;60.47;23.02;;;;;;;;;;5025868;28;25083;-67
2024/03/13 08:04:58;;;;;;;50.47;22.77;;;;;;;;;;5024803;28;25088;-67
2024/03/13 08:07:26;;;;;;;41.22;19.98;;;;;;;;;;5022883;28;25064;-67
2024/03/13 08:09:53;;;;;;;42.30;20.48;;;;;;;;;;5026777;28;25061;-67
2024/03/13 08:12:19;;;;;;;41.97;19.38;;;;;;;;;;5025824;28;25077;-69
2024/03/13 08:14:46;;;;;;;50.08;22.42;;;;;;;;;;4995916;28;25072;-68
2024/03/13 08:17:13;;;;;;;46.95;18.98;;;;;;;;;;4998077;28;25129;-68
2024/03/13 08:19:39;;;;;;;32.58;17.85;;;;;;;;;;4995543;28;25106;-66
2024/03/13 08:22:05;;;;;;;40.90;17.70;;;;;;;;;;5004019;28;25099;-68
2024/03/13 08:24:31;;;;;;;36.38;16.63;;;;;;;;;;5001097;28;25111;-68
2024/03/13 08:26:57;;;;;;;37.80;16.50;;;;;;;;;;4995623;28;25109;-68
2024/03/13 08:29:23;;;;;;;25.60;13.93;;;;;;;;;;4999641;28;25157;-68
2024/03/13 08:31:50;;;;;;;39.83;16.48;;;;;;;;;;5005585;28;25110;-66
2024/03/13 08:34:16;;;;;;;32.15;13.68;;;;;;;;;;4999982;28;25115;-68
2024/03/13 08:36:42;;;;;;;28.73;13.32;;;;;;;;;;5001817;28;25178;-67
2024/03/13 08:39:09;;;;;;;22.42;10.93;;;;;;;;;;4996246;28;25115;-68
2024/03/13 08:41:35;;;;;;;29.25;13.43;;;;;;;;;;5004282;28;25002;-67
2024/03/13 08:44:03;;;;;;;32.35;14.55;;;;;;;;;;5001660;28;25158;-66
2024/03/13 08:46:29;;;;;;;33.15;13.93;;;;;;;;;;5000732;28;25093;-67
2024/03/13 08:48:58;;;;;;;29.63;13.63;;;;;;;;;;4997236;28;25148;-66
2024/03/13 08:51:26;;;;;;;27.45;14.13;;;;;;;;;;5007537;28;25076;-67
2024/03/13 08:53:52;;;;;;;34.75;12.50;;;;;;;;;;4997274;28;25058;-67
2024/03/13 08:56:19;;;;;;;27.05;12.40;;;;;;;;;;4998339;28;25111;-66
2024/03/13 08:58:45;;;;;;;32.90;12.18;;;;;;;;;;4995063;28;25053;-69
2024/03/13 09:01:11;;;;;;;37.50;12.35;;;;;;;;;;5003875;28;25068;-68
2024/03/13 09:03:37;;;;;;;37.05;11.57;;;;;;;;;;4994106;28;25081;-67
2024/03/13 09:06:07;;;;;;;34.78;10.57;;;;;;;;;;4998021;28;25126;-66
2024/03/13 09:08:33;;;;;;;36.80;10.77;;;;;;;;;;5003359;28;25125;-66
2024/03/13 09:11:00;;;;;;;38.78;10.73;;;;;;;;;;5001893;28;25081;-66
2024/03/13 09:13:26;;;;;;;30.83;9.60;;;;;;;;;;4995622;28;25084;-65
2024/03/13 09:15:52;;;;;;;26.73;8.50;;;;;;;;;;5002164;28;25125;-67
2024/03/13 09:18:18;;;;;;;33.08;10.27;;;;;;;;;;4993732;28;25081;-68
2024/03/13 09:20:44;;;;;;;36.28;8.50;;;;;;;;;;4995971;28;25064;-67
2024/03/13 09:23:11;;;;;;;27.80;8.07;;;;;;;;;;4997597;28;25135;-67
2024/03/13 09:25:36;;;;;;;37.03;7.75;;;;;;;;;;5013595;28;25107;-65
2024/03/13 09:28:03;;;;;;;34.25;7.07;;;;;;;;;;5018091;28;25050;-68
2024/03/13 09:30:29;;;;;;;24.30;6.53;;;;;;;;;;5022435;28;25106;-70
2024/03/13 09:32:59;;;;;;;31.17;7.03;;;;;;;;;;5006928;28;25093;-67
2024/03/13 09:35:25;;;;;;;30.67;6.63;;;;;;;;;;5004470;28;25059;-66
2024/03/13 09:37:52;;;;;;;22.10;6.43;;;;;;;;;;5000234;28;25134;-66
2024/03/13 09:40:19;;;;;;;24.02;6.28;;;;;;;;;;4994569;28;25124;-66
2024/03/13 09:42:45;;;;;;;24.83;6.35;;;;;;;;;;4992920;28;25117;-67
2024/03/13 09:45:18;;;;;;;18.83;5.53;;;;;;;;;;4989021;28;25062;-71
2024/03/13 09:47:44;;;;;;;15.57;4.90;;;;;;;;;;4993547;28;25052;-68
2024/03/13 09:50:15;;;;;;;23.10;5.15;;;;;;;;;;4994511;28;25062;-67
2024/03/13 09:52:42;;;;;;;22.85;5.60;;;;;;;;;;4992798;28;25105;-65
2024/03/13 09:55:13;;;;;;;17.50;5.15;;;;;;;;;;4992344;28;25092;-66
2024/03/13 09:57:39;;;;;;;19.77;4.40;;;;;;;;;;4995109;28;25062;-67
2024/03/13 10:00:18;;;;;;;18.70;4.45;;;;;;;;;;5002264;28;25094;-69
2024/03/13 10:02:46;;;;;;;15.50;5.00;;;;;;;;;;4999402;28;25136;-66
2024/03/13 10:05:13;;;;;;;15.85;4.60;;;;;;;;;;4997981;28;25159;-67
2024/03/13 10:07:39;;;;;;;18.67;3.75;;;;;;;;;;4993298;28;25073;-67
2024/03/13 10:10:22;;;;;;;21.77;4.45;;;;;;;;;;4998905;28;25086;-67
2024/03/13 10:12:49;;;;;;;20.48;4.63;;;;;;;;;;4994725;28;25071;-67
2024/03/13 10:15:16;;;;;;;20.48;4.28;;;;;;;;;;4996983;28;25153;-65
2024/03/13 10:17:44;;;;;;;21.83;4.57;;;;;;;;;;4996129;28;25088;-67
2024/03/13 10:20:14;;;;;;;15.20;3.80;;;;;;;;;;4992445;28;25150;-67
2024/03/13 10:22:40;;;;;;;16.80;4.03;;;;;;;;;;4997732;28;25055;-68
2024/03/13 10:25:16;;;;;;;14.02;3.15;;;;;;;;;;4990241;28;25058;-66
2024/03/13 10:27:43;;;;;;;12.80;3.60;;;;;;;;;;4995467;28;25062;-67
2024/03/13 10:30:12;;;;;;;16.88;3.75;;;;;;;;;;4995096;28;25073;-70
2024/03/13 10:32:40;;;;;;;16.55;4.35;;;;;;;;;;4999269;28;25064;-67
2024/03/13 10:35:09;;;;;;;14.55;4.13;;;;;;;;;;4994454;28;25094;-66
2024/03/13 10:37:35;;;;;;;14.77;3.80;;;;;;;;;;4991638;28;25076;-67
2024/03/13 10:40:05;;;;;;;14.35;3.78;;;;;;;;;;4991785;28;25068;-67
2024/03/13 10:42:31;;;;;;;10.93;3.83;;;;;;;;;;4988698;28;25072;-66
2024/03/13 10:44:58;;;;;;;10.27;3.65;;;;;;;;;;4999139;28;25066;-68
2024/03/13 10:47:27;;;;;;;11.18;3.20;;;;;;;;;;4998460;28;25073;-67
2024/03/13 10:49:53;;;;;;;13.07;3.55;;;;;;;;;;4995953;28;25144;-68
2024/03/13 10:52:19;;;;;;;13.30;4.00;;;;;;;;;;4995387;28;25149;-68
2024/03/13 10:54:45;;;;;;;11.80;4.10;;;;;;;;;;4994150;28;25104;-67
2024/03/13 10:57:18;;;;;;;18.13;4.82;;;;;;;;;;4995185;28;25150;-68
2024/03/13 10:59:44;;;;;;;11.88;4.82;;;;;;;;;;4992771;28;25045;-66
2024/03/13 11:02:13;;;;;;;16.45;4.65;;;;;;;;;;4988929;28;25046;-67
2024/03/13 11:04:41;;;;;;;12.27;4.50;;;;;;;;;;4993711;28;25065;-69
2024/03/13 11:07:12;;;;;;;18.52;3.95;;;;;;;;;;4996917;28;25111;-67
2024/03/13 11:09:38;;;;;;;12.25;3.90;;;;;;;;;;4997258;28;25059;-66
2024/03/13 11:12:08;;;;;;;8.00;3.33;;;;;;;;;;5021257;28;25047;-68
2024/03/13 11:14:34;;;;;;;14.30;4.80;;;;;;;;;;5015645;28;25159;-66
2024/03/13 11:17:03;;;;;;;11.40;3.28;;;;;;;;;;5028102;28;25068;-66
2024/03/13 11:19:32;;;;;;;12.60;3.40;;;;;;;;;;5024374;28;25121;-67
2024/03/13 11:21:59;;;;;;;8.63;2.63;;;;;;;;;;5025719;28;25093;-67
2024/03/13 11:24:28;;;;;;;9.65;4.05;;;;;;;;;;5003601;28;25067;-68
2024/03/13 11:26:57;;;;;;;7.15;2.90;;;;;;;;;;5006473;28;25146;-67
2024/03/13 11:29:28;;;;;;;11.30;3.70;;;;;;;;;;5004161;28;25086;-68
2024/03/13 11:31:57;;;;;;;10.60;3.50;;;;;;;;;;5004040;28;25106;-68
2024/03/13 11:34:24;;;;;;;14.02;4.05;;;;;;;;;;4995526;28;25056;-70
2024/03/13 11:36:50;;;;;;;10.23;3.85;;;;;;;;;;5000410;28;25180;-67
2024/03/13 11:39:16;;;;;;;10.85;3.90;;;;;;;;;;4998476;28;25144;-70
2024/03/13 11:41:45;;;;;;;12.80;3.70;;;;;;;;;;5001703;28;25107;-70
2024/03/13 11:44:16;;;;;;;16.00;4.00;;;;;;;;;;5011224;28;25050;-69
2024/03/13 11:46:48;;;;;;;14.40;4.63;;;;;;;;;;5009017;28;25074;-66
2024/03/13 11:49:14;;;;;;;11.57;4.85;;;;;;;;;;5017529;28;25072;-68
2024/03/13 11:52:01;;;;;;;14.18;6.18;;;;;;;;;;5005897;28;25103;-68
2024/03/13 11:54:33;;;;;;;16.88;6.00;;;;;;;;;;5000308;28;25072;-67
2024/03/13 11:57:03;;;;;;;17.52;6.40;;;;;;;;;;4991702;28;25075;-66
2024/03/13 11:59:41;;;;;;;13.45;7.35;;;;;;;;;;4996266;28;25087;-70
2024/03/13 12:02:26;;;;;;;17.52;7.88;;;;;;;;;;4999150;28;25091;-65
2024/03/13 12:04:52;;;;;;;17.13;9.25;;;;;;;;;;4995231;28;25140;-66
2024/03/13 12:07:18;;;;;;;23.55;10.68;;;;;;;;;;4991658;28;25064;-67
2024/03/13 12:09:44;;;;;;;18.88;10.35;;;;;;;;;;4998083;28;25099;-67
2024/03/13 12:12:13;;;;;;;19.02;10.95;;;;;;;;;;4995129;28;25093;-70
2024/03/13 12:14:40;;;;;;;23.92;11.45;;;;;;;;;;4995683;28;25076;-68
2024/03/13 12:17:07;;;;;;;20.60;12.88;;;;;;;;;;5003621;28;25054;-68
2024/03/13 12:19:34;;;;;;;18.77;12.85;;;;;;;;;;5005793;28;25153;-69
2024/03/13 12:22:02;;;;;;;21.08;12.13;;;;;;;;;;5007901;28;25071;-66
2024/03/13 12:24:29;;;;;;;26.30;13.45;;;;;;;;;;5000149;28;25065;-66
2024/03/13 12:26:56;;;;;;;18.63;11.48;;;;;;;;;;5004199;28;25134;-68
2024/03/13 12:29:22;;;;;;;23.50;12.25;;;;;;;;;;4996906;28;25105;-66
2024/03/13 12:31:49;;;;;;;20.17;12.60;;;;;;;;;;5002335;28;25076;-67
2024/03/13 12:34:18;;;;;;;18.05;13.32;;;;;;;;;;4993538;28;25078;-66
2024/03/13 12:36:44;;;;;;;19.45;12.60;;;;;;;;;;4999882;28;25087;-67
2024/03/13 12:39:10;;;;;;;19.52;12.23;;;;;;;;;;4995766;28;25132;-67
2024/03/13 12:41:37;;;;;;;17.98;12.60;;;;;;;;;;4998634;28;25081;-68
2024/03/13 12:44:05;;;;;;;22.75;12.10;;;;;;;;;;4996739;28;25061;-69
2024/03/13 12:46:31;;;;;;;16.88;10.65;;;;;;;;;;4993586;28;25170;-66
2024/03/13 12:48:57;;;;;;;14.02;10.18;;;;;;;;;;4996399;28;25072;-66
2024/03/13 12:51:23;;;;;;;15.38;8.77;;;;;;;;;;5003843;28;25059;-67
2024/03/13 12:53:50;;;;;;;15.68;8.75;;;;;;;;;;4996937;28;25084;-66
2024/03/13 12:56:18;;;;;;;11.00;6.25;;;;;;;;;;5004929;28;25132;-66
2024/03/13 12:58:46;;;;;;;11.02;6.28;;;;;;;;;;5000124;28;25071;-67
2024/03/13 13:01:13;;;;;;;11.27;6.40;;;;;;;;;;4991936;28;25063;-67
2024/03/13 13:03:40;;;;;;;13.73;6.00;;;;;;;;;;4995138;28;25146;-67
2024/03/13 13:06:16;;;;;;;10.63;4.00;;;;;;;;;;5004220;28;25142;-67
2024/03/13 13:08:45;;;;;;;7.93;3.72;;;;;;;;;;5014127;28;25074;-67
2024/03/13 13:11:14;;;;;;;7.05;3.70;;;;;;;;;;5018916;28;25066;-68
2024/03/13 13:13:40;;;;;;;6.45;3.67;;;;;;;;;;5014564;28;25167;-66
2024/03/13 13:16:09;;;;;;;6.93;2.80;;;;;;;;;;5013005;28;25102;-67
2024/03/13 13:18:41;;;;;;;5.63;2.55;;;;;;;;;;5009341;28;25096;-68
2024/03/13 13:21:09;;;;;;;8.77;2.42;;;;;;;;;;5015438;28;25060;-67
2024/03/13 13:23:38;;;;;;;6.38;2.60;;;;;;;;;;5013186;28;25099;-68
2024/03/13 13:26:04;;;;;;;6.65;2.65;;;;;;;;;;5022412;28;25110;-68
2024/03/13 13:28:30;;;;;;;4.57;3.20;;;;;;;;;;5014319;28;25093;-68
2024/03/13 13:30:56;;;;;;;6.20;3.05;;;;;;;;;;5011637;28;25065;-67
2024/03/13 13:33:23;;;;;;;7.05;3.08;;;;;;;;;;5017360;28;25150;-66
2024/03/13 13:35:49;;;;;;;6.25;2.95;;;;;;;;;;5013434;28;26143;-66
2024/03/13 13:38:18;;;;;;;5.10;3.38;;;;;;;;;;5014492;28;25060;-67
2024/03/13 13:40:44;;;;;;;4.85;3.33;;;;;;;;;;5019186;28;25142;-66
2024/03/13 13:43:10;;;;;;;7.93;4.35;;;;;;;;;;5019289;28;25057;-70
2024/03/13 13:45:36;;;;;;;6.53;3.45;;;;;;;;;;5016155;28;25144;-68
2024/03/13 13:48:03;;;;;;;6.70;2.80;;;;;;;;;;5024443;28;25104;-67
2024/03/13 13:50:29;;;;;;;3.33;2.60;;;;;;;;;;5020990;28;25069;-67
2024/03/13 13:52:55;;;;;;;7.55;3.25;;;;;;;;;;5023406;28;25051;-68
2024/03/13 13:55:20;;;;;;;4.05;2.45;;;;;;;;;;5015500;28;25058;-67
2024/03/13 13:57:50;;;;;;;5.68;2.50;;;;;;;;;;5016993;28;25097;-69
2024/03/13 14:00:17;;;;;;;7.93;2.60;;;;;;;;;;5030716;28;25088;-65
2024/03/13 14:02:43;;;;;;;7.38;2.97;;;;;;;;;;5044607;28;25054;-67
2024/03/13 14:05:09;;;;;;;5.72;2.40;;;;;;;;;;5043243;28;25076;-69
2024/03/13 14:07:35;;;;;;;6.43;2.30;;;;;;;;;;5036337;28;25055;-65
2024/03/13 14:10:02;;;;;;;3.88;2.40;;;;;;;;;;5031322;28;25062;-68
2024/03/13 14:12:34;;;;;;;4.75;2.92;;;;;;;;;;5018085;28;25053;-66
2024/03/13 14:15:00;;;;;;;3.55;2.00;;;;;;;;;;5015705;28;25090;-66
2024/03/13 14:17:28;;;;;;;5.78;2.90;;;;;;;;;;5015236;28;25069;-66
2024/03/13 14:19:55;;;;;;;2.63;2.05;;;;;;;;;;5012102;28;25074;-68
2024/03/13 14:22:21;;;;;;;3.72;2.25;;;;;;;;;;5015468;28;25124;-68
2024/03/13 14:24:47;;;;;;;4.28;2.10;;;;;;;;;;5016942;28;25076;-68
2024/03/13 14:27:13;;;;;;;5.45;1.88;;;;;;;;;;5010541;28;25147;-70
2024/03/13 14:29:41;;;;;;;5.10;1.90;;;;;;;;;;5014971;28;25074;-66
2024/03/13 14:32:08;;;;;;;4.75;1.98;;;;;;;;;;5012023;28;25107;-72
2024/03/13 14:34:34;;;;;;;3.85;2.15;;;;;;;;;;5007360;28;25067;-67
2024/03/13 14:37:01;;;;;;;3.63;2.00;;;;;;;;;;5010294;28;25093;-66
2024/03/13 14:39:27;;;;;;;2.90;1.73;;;;;;;;;;5012592;28;25063;-68
2024/03/13 14:41:53;;;;;;;4.05;2.25;;;;;;;;;;5013903;28;25122;-68
2024/03/13 14:44:19;;;;;;;4.47;1.80;;;;;;;;;;5007717;28;25142;-66